KBUF/BUF METAR and TAF weather

Enter ICAO airport designator
Station Type Date Time Source
KBUF METAR 2021/07/26 11:54 UTC NOAA

KBUF 261154Z 21005KT 10SM SCT075 21/19 A2996 RMK AO2 SLP139 T02110189 10211 20189 53009


Station Type Date Time Source
KBUF Decoded METAR 2021/07/26 11:54 UTC NOAA

GREATER BUFFALO INTERNATIONAL AIRPORT , NY, United States (KBUF) 42-56N 078-44W 225M
Jul 26, 2021 - 07:54 AM EDT / 2021.07.26 1154 UTC
Wind: from the SSW (210 degrees) at 6 MPH (5 KT):0
Visibility: 10 mile(s):0
Sky conditions: partly cloudy
Temperature: 70.0 F (21.1 C)
Dew Point: 66.0 F (18.9 C)
Relative Humidity: 87%
Pressure (altimeter): 29.96 in. Hg (1014 hPa)
Pressure tendency: 0.03 inches (0.9 hPa) higher than three hours ago
ob: KBUF 261154Z 21005KT 10SM SCT075 21/19 A2996 RMK AO2 SLP139 T02110189 10211 20189 53009
cycle: 12

Station Type Date Time Source
KBUF TAF 2021/07/26 12:22 UTC NOAA

TAF KBUF 261120Z 2612/2712 20005KT P6SM FEW250
FM261400 24010KT P6SM SKC
FM262000 24010KT P6SM SCT060
FM270200 22006KT P6SM SCT250

Example: see airport list